sensor_id;sensor_type;location;lat;lon;timestamp;P1;durP1;ratioP1;P2;durP2;ratioP2
38034;SDS011;23841;48.524;1.342;2022-12-29T00:01:34;5.15;;;1.23;;
38034;SDS011;23841;48.524;1.342;2022-12-29T00:03:59;4.78;;;1.30;;
38034;SDS011;23841;48.524;1.342;2022-12-29T00:06:25;5.45;;;1.63;;
38034;SDS011;23841;48.524;1.342;2022-12-29T00:08:50;2.13;;;0.80;;
38034;SDS011;23841;48.524;1.342;2022-12-29T00:11:18;7.55;;;1.27;;
38034;SDS011;23841;48.524;1.342;2022-12-29T00:13:44;3.83;;;1.10;;
38034;SDS011;23841;48.524;1.342;2022-12-29T00:16:29;3.22;;;0.90;;
38034;SDS011;23841;48.524;1.342;2022-12-29T00:18:54;5.15;;;1.13;;
38034;SDS011;23841;48.524;1.342;2022-12-29T00:21:20;5.32;;;1.10;;
38034;SDS011;23841;48.524;1.342;2022-12-29T00:24:04;5.97;;;1.10;;
38034;SDS011;23841;48.524;1.342;2022-12-29T00:26:40;2.35;;;0.82;;
38034;SDS011;23841;48.524;1.342;2022-12-29T00:29:23;3.45;;;1.15;;
38034;SDS011;23841;48.524;1.342;2022-12-29T00:32:08;2.55;;;0.95;;
38034;SDS011;23841;48.524;1.342;2022-12-29T00:34:52;5.25;;;1.20;;
38034;SDS011;23841;48.524;1.342;2022-12-29T00:37:34;7.20;;;1.27;;
38034;SDS011;23841;48.524;1.342;2022-12-29T00:40:18;5.30;;;1.30;;
38034;SDS011;23841;48.524;1.342;2022-12-29T00:43:02;5.90;;;1.00;;
38034;SDS011;23841;48.524;1.342;2022-12-29T00:45:45;4.10;;;0.98;;
38034;SDS011;23841;48.524;1.342;2022-12-29T00:48:11;3.17;;;0.80;;
38034;SDS011;23841;48.524;1.342;2022-12-29T00:50:37;3.08;;;0.80;;
38034;SDS011;23841;48.524;1.342;2022-12-29T00:53:02;2.22;;;0.77;;
38034;SDS011;23841;48.524;1.342;2022-12-29T00:55:27;3.05;;;1.10;;
38034;SDS011;23841;48.524;1.342;2022-12-29T00:57:53;1.98;;;1.10;;
38034;SDS011;23841;48.524;1.342;2022-12-29T01:00:18;4.50;;;0.77;;
38034;SDS011;23841;48.524;1.342;2022-12-29T01:02:44;3.83;;;0.80;;
38034;SDS011;23841;48.524;1.342;2022-12-29T01:05:09;3.15;;;0.70;;
38034;SDS011;23841;48.524;1.342;2022-12-29T01:07:35;1.63;;;0.60;;
38034;SDS011;23841;48.524;1.342;2022-12-29T01:10:00;2.95;;;0.70;;
38034;SDS011;23841;48.524;1.342;2022-12-29T01:12:34;2.40;;;0.60;;
38034;SDS011;23841;48.524;1.342;2022-12-29T01:15:07;2.78;;;0.90;;
38034;SDS011;23841;48.524;1.342;2022-12-29T01:17:33;1.55;;;0.50;;
38034;SDS011;23841;48.524;1.342;2022-12-29T01:19:58;5.40;;;0.90;;
38034;SDS011;23841;48.524;1.342;2022-12-29T01:22:24;3.05;;;0.80;;
38034;SDS011;23841;48.524;1.342;2022-12-29T01:24:49;1.38;;;0.50;;
38034;SDS011;23841;48.524;1.342;2022-12-29T01:27:14;2.33;;;0.77;;
38034;SDS011;23841;48.524;1.342;2022-12-29T01:29:40;2.83;;;0.50;;
38034;SDS011;23841;48.524;1.342;2022-12-29T01:32:05;1.85;;;0.50;;
38034;SDS011;23841;48.524;1.342;2022-12-29T01:34:30;3.03;;;0.63;;
38034;SDS011;23841;48.524;1.342;2022-12-29T01:36:55;2.80;;;0.75;;
38034;SDS011;23841;48.524;1.342;2022-12-29T01:39:21;1.10;;;0.40;;
38034;SDS011;23841;48.524;1.342;2022-12-29T01:41:46;1.70;;;0.47;;
38034;SDS011;23841;48.524;1.342;2022-12-29T01:44:46;3.22;;;0.82;;
38034;SDS011;23841;48.524;1.342;2022-12-29T01:47:03;3.42;;;0.70;;
38034;SDS011;23841;48.524;1.342;2022-12-29T01:49:28;1.00;;;0.57;;
38034;SDS011;23841;48.524;1.342;2022-12-29T01:51:55;3.63;;;0.85;;
38034;SDS011;23841;48.524;1.342;2022-12-29T01:54:24;2.95;;;0.73;;
38034;SDS011;23841;48.524;1.342;2022-12-29T01:56:51;2.78;;;0.50;;
38034;SDS011;23841;48.524;1.342;2022-12-29T01:59:18;2.35;;;0.60;;
38034;SDS011;23841;48.524;1.342;2022-12-29T02:01:46;2.22;;;0.63;;
38034;SDS011;23841;48.524;1.342;2022-12-29T02:04:12;1.30;;;0.40;;
38034;SDS011;23841;48.524;1.342;2022-12-29T02:06:41;2.30;;;0.60;;
38034;SDS011;23841;48.524;1.342;2022-12-29T02:09:12;2.72;;;0.50;;
38034;SDS011;23841;48.524;1.342;2022-12-29T02:11:37;2.92;;;0.73;;
38034;SDS011;23841;48.524;1.342;2022-12-29T02:14:12;1.55;;;0.45;;
38034;SDS011;23841;48.524;1.342;2022-12-29T02:24:14;3.45;;;0.70;;
38034;SDS011;23841;48.524;1.342;2022-12-29T02:34:26;4.20;;;0.90;;
38034;SDS011;23841;48.524;1.342;2022-12-29T02:37:09;3.40;;;0.73;;
38034;SDS011;23841;48.524;1.342;2022-12-29T02:47:20;4.72;;;0.75;;
38034;SDS011;23841;48.524;1.342;2022-12-29T02:49:46;3.85;;;0.93;;
38034;SDS011;23841;48.524;1.342;2022-12-29T02:52:23;3.13;;;0.80;;
38034;SDS011;23841;48.524;1.342;2022-12-29T02:54:52;2.47;;;0.88;;
38034;SDS011;23841;48.524;1.342;2022-12-29T02:59:46;3.03;;;0.90;;
38034;SDS011;23841;48.524;1.342;2022-12-29T03:12:48;3.25;;;0.60;;
38034;SDS011;23841;48.524;1.342;2022-12-29T03:15:53;6.18;;;1.13;;
38034;SDS011;23841;48.524;1.342;2022-12-29T03:23:32;4.22;;;1.00;;
38034;SDS011;23841;48.524;1.342;2022-12-29T03:25:59;5.15;;;1.30;;
38034;SDS011;23841;48.524;1.342;2022-12-29T03:28:31;4.13;;;1.13;;
38034;SDS011;23841;48.524;1.342;2022-12-29T03:31:00;3.30;;;0.70;;
38034;SDS011;23841;48.524;1.342;2022-12-29T03:33:27;4.53;;;1.08;;
38034;SDS011;23841;48.524;1.342;2022-12-29T03:35:54;8.75;;;2.00;;
38034;SDS011;23841;48.524;1.342;2022-12-29T03:41:03;4.32;;;0.90;;
38034;SDS011;23841;48.524;1.342;2022-12-29T03:43:29;6.63;;;1.08;;
38034;SDS011;23841;48.524;1.342;2022-12-29T03:45:54;3.55;;;1.05;;
38034;SDS011;23841;48.524;1.342;2022-12-29T03:48:20;4.60;;;0.90;;
38034;SDS011;23841;48.524;1.342;2022-12-29T03:50:45;5.25;;;1.40;;
38034;SDS011;23841;48.524;1.342;2022-12-29T03:53:10;4.55;;;1.02;;
38034;SDS011;23841;48.524;1.342;2022-12-29T03:55:36;2.83;;;1.05;;
38034;SDS011;23841;48.524;1.342;2022-12-29T03:58:01;4.38;;;0.73;;
38034;SDS011;23841;48.524;1.342;2022-12-29T04:00:26;3.50;;;0.82;;
38034;SDS011;23841;48.524;1.342;2022-12-29T04:02:51;3.70;;;0.90;;
38034;SDS011;23841;48.524;1.342;2022-12-29T04:05:17;3.55;;;0.98;;
38034;SDS011;23841;48.524;1.342;2022-12-29T04:07:42;3.70;;;0.90;;
38034;SDS011;23841;48.524;1.342;2022-12-29T04:12:36;6.93;;;1.23;;
38034;SDS011;23841;48.524;1.342;2022-12-29T04:15:01;4.07;;;1.10;;
38034;SDS011;23841;48.524;1.342;2022-12-29T04:17:27;3.88;;;1.10;;
38034;SDS011;23841;48.524;1.342;2022-12-29T04:19:52;6.30;;;1.42;;
38034;SDS011;23841;48.524;1.342;2022-12-29T04:22:37;2.33;;;0.83;;
38034;SDS011;23841;48.524;1.342;2022-12-29T04:25:03;5.43;;;1.27;;
38034;SDS011;23841;48.524;1.342;2022-12-29T04:27:28;6.20;;;1.02;;
38034;SDS011;23841;48.524;1.342;2022-12-29T04:29:53;3.60;;;1.02;;
38034;SDS011;23841;48.524;1.342;2022-12-29T04:32:18;3.30;;;0.80;;
38034;SDS011;23841;48.524;1.342;2022-12-29T04:34:44;6.43;;;1.30;;
38034;SDS011;23841;48.524;1.342;2022-12-29T04:37:09;6.70;;;1.55;;
38034;SDS011;23841;48.524;1.342;2022-12-29T04:39:34;4.60;;;1.02;;
38034;SDS011;23841;48.524;1.342;2022-12-29T04:41:59;3.92;;;0.98;;
38034;SDS011;23841;48.524;1.342;2022-12-29T04:44:25;4.15;;;1.10;;
38034;SDS011;23841;48.524;1.342;2022-12-29T04:46:50;4.10;;;1.02;;
38034;SDS011;23841;48.524;1.342;2022-12-29T04:49:15;5.88;;;1.10;;
38034;SDS011;23841;48.524;1.342;2022-12-29T04:51:40;4.68;;;1.38;;
38034;SDS011;23841;48.524;1.342;2022-12-29T04:54:06;6.82;;;1.70;;
38034;SDS011;23841;48.524;1.342;2022-12-29T04:56:31;9.50;;;1.38;;
38034;SDS011;23841;48.524;1.342;2022-12-29T04:58:56;4.85;;;1.40;;
38034;SDS011;23841;48.524;1.342;2022-12-29T05:01:21;7.43;;;1.60;;
38034;SDS011;23841;48.524;1.342;2022-12-29T05:03:47;8.02;;;1.52;;
38034;SDS011;23841;48.524;1.342;2022-12-29T05:06:14;4.43;;;1.10;;
38034;SDS011;23841;48.524;1.342;2022-12-29T05:08:39;6.97;;;1.17;;
38034;SDS011;23841;48.524;1.342;2022-12-29T05:11:04;7.35;;;1.70;;
38034;SDS011;23841;48.524;1.342;2022-12-29T05:13:30;6.07;;;1.55;;
38034;SDS011;23841;48.524;1.342;2022-12-29T05:15:55;4.32;;;1.45;;
38034;SDS011;23841;48.524;1.342;2022-12-29T05:18:20;6.88;;;1.40;;
38034;SDS011;23841;48.524;1.342;2022-12-29T05:20:46;6.03;;;1.95;;
38034;SDS011;23841;48.524;1.342;2022-12-29T05:23:11;8.50;;;2.35;;
38034;SDS011;23841;48.524;1.342;2022-12-29T05:25:37;8.23;;;2.13;;
38034;SDS011;23841;48.524;1.342;2022-12-29T05:28:02;6.82;;;1.60;;
38034;SDS011;23841;48.524;1.342;2022-12-29T05:30:28;4.85;;;1.60;;
38034;SDS011;23841;48.524;1.342;2022-12-29T05:32:53;7.20;;;1.50;;
38034;SDS011;23841;48.524;1.342;2022-12-29T05:35:18;9.27;;;1.75;;
38034;SDS011;23841;48.524;1.342;2022-12-29T05:37:43;7.63;;;1.88;;
38034;SDS011;23841;48.524;1.342;2022-12-29T05:40:09;6.93;;;1.30;;
38034;SDS011;23841;48.524;1.342;2022-12-29T05:42:34;5.38;;;1.30;;
38034;SDS011;23841;48.524;1.342;2022-12-29T05:44:59;6.70;;;1.35;;
38034;SDS011;23841;48.524;1.342;2022-12-29T05:47:25;5.10;;;1.30;;
38034;SDS011;23841;48.524;1.342;2022-12-29T05:49:50;5.38;;;1.48;;
38034;SDS011;23841;48.524;1.342;2022-12-29T05:52:16;7.43;;;1.50;;
38034;SDS011;23841;48.524;1.342;2022-12-29T05:54:41;3.50;;;1.13;;
38034;SDS011;23841;48.524;1.342;2022-12-29T05:57:07;5.20;;;1.35;;
38034;SDS011;23841;48.524;1.342;2022-12-29T05:59:32;9.20;;;1.45;;
38034;SDS011;23841;48.524;1.342;2022-12-29T06:01:58;8.82;;;1.30;;
38034;SDS011;23841;48.524;1.342;2022-12-29T06:04:23;5.80;;;1.48;;
38034;SDS011;23841;48.524;1.342;2022-12-29T06:06:48;8.43;;;1.75;;
38034;SDS011;23841;48.524;1.342;2022-12-29T06:09:14;7.55;;;2.05;;
38034;SDS011;23841;48.524;1.342;2022-12-29T06:11:39;8.40;;;1.70;;
38034;SDS011;23841;48.524;1.342;2022-12-29T06:14:04;5.40;;;1.45;;
38034;SDS011;23841;48.524;1.342;2022-12-29T06:16:29;5.35;;;1.40;;
38034;SDS011;23841;48.524;1.342;2022-12-29T06:18:55;7.55;;;1.73;;
38034;SDS011;23841;48.524;1.342;2022-12-29T06:21:20;5.15;;;1.30;;
38034;SDS011;23841;48.524;1.342;2022-12-29T06:23:45;5.00;;;1.55;;
38034;SDS011;23841;48.524;1.342;2022-12-29T06:26:10;6.70;;;1.40;;
38034;SDS011;23841;48.524;1.342;2022-12-29T06:28:36;9.73;;;2.05;;
38034;SDS011;23841;48.524;1.342;2022-12-29T06:31:01;8.38;;;1.42;;
38034;SDS011;23841;48.524;1.342;2022-12-29T06:33:28;4.47;;;1.02;;
38034;SDS011;23841;48.524;1.342;2022-12-29T06:35:53;9.25;;;1.45;;
38034;SDS011;23841;48.524;1.342;2022-12-29T06:38:18;10.75;;;1.42;;
38034;SDS011;23841;48.524;1.342;2022-12-29T06:40:43;4.97;;;1.45;;
38034;SDS011;23841;48.524;1.342;2022-12-29T06:43:10;4.68;;;1.10;;
38034;SDS011;23841;48.524;1.342;2022-12-29T06:45:37;6.85;;;1.40;;
38034;SDS011;23841;48.524;1.342;2022-12-29T06:48:02;4.20;;;1.13;;
38034;SDS011;23841;48.524;1.342;2022-12-29T06:50:27;6.65;;;1.75;;
38034;SDS011;23841;48.524;1.342;2022-12-29T06:52:52;6.07;;;1.35;;
38034;SDS011;23841;48.524;1.342;2022-12-29T06:55:18;6.90;;;1.50;;
38034;SDS011;23841;48.524;1.342;2022-12-29T06:57:43;6.18;;;1.50;;
38034;SDS011;23841;48.524;1.342;2022-12-29T07:00:08;9.48;;;1.92;;
38034;SDS011;23841;48.524;1.342;2022-12-29T07:02:34;5.93;;;1.77;;
38034;SDS011;23841;48.524;1.342;2022-12-29T07:04:59;7.13;;;1.42;;
38034;SDS011;23841;48.524;1.342;2022-12-29T07:07:24;5.20;;;1.15;;
38034;SDS011;23841;48.524;1.342;2022-12-29T07:09:50;8.05;;;1.70;;
38034;SDS011;23841;48.524;1.342;2022-12-29T07:12:15;5.72;;;1.50;;
38034;SDS011;23841;48.524;1.342;2022-12-29T07:14:40;8.57;;;1.80;;
38034;SDS011;23841;48.524;1.342;2022-12-29T07:17:05;9.77;;;1.73;;
38034;SDS011;23841;48.524;1.342;2022-12-29T07:19:31;7.15;;;1.55;;
38034;SDS011;23841;48.524;1.342;2022-12-29T07:21:57;6.55;;;1.60;;
38034;SDS011;23841;48.524;1.342;2022-12-29T07:24:22;4.45;;;1.33;;
38034;SDS011;23841;48.524;1.342;2022-12-29T07:26:47;8.48;;;1.95;;
38034;SDS011;23841;48.524;1.342;2022-12-29T07:29:13;10.27;;;1.80;;
38034;SDS011;23841;48.524;1.342;2022-12-29T07:31:38;9.23;;;1.92;;
38034;SDS011;23841;48.524;1.342;2022-12-29T07:34:03;11.57;;;2.15;;
38034;SDS011;23841;48.524;1.342;2022-12-29T07:36:28;6.32;;;1.63;;
38034;SDS011;23841;48.524;1.342;2022-12-29T07:38:54;6.68;;;1.83;;
38034;SDS011;23841;48.524;1.342;2022-12-29T07:41:19;8.43;;;2.10;;
38034;SDS011;23841;48.524;1.342;2022-12-29T07:43:47;10.38;;;1.95;;
38034;SDS011;23841;48.524;1.342;2022-12-29T07:46:15;6.63;;;1.60;;
38034;SDS011;23841;48.524;1.342;2022-12-29T07:48:41;9.27;;;2.50;;
38034;SDS011;23841;48.524;1.342;2022-12-29T07:51:06;6.35;;;1.83;;
38034;SDS011;23841;48.524;1.342;2022-12-29T07:53:31;9.70;;;1.73;;
38034;SDS011;23841;48.524;1.342;2022-12-29T07:55:57;7.38;;;1.88;;
38034;SDS011;23841;48.524;1.342;2022-12-29T07:58:22;8.80;;;1.80;;
38034;SDS011;23841;48.524;1.342;2022-12-29T08:00:47;7.60;;;2.10;;
38034;SDS011;23841;48.524;1.342;2022-12-29T08:03:12;13.55;;;2.28;;
38034;SDS011;23841;48.524;1.342;2022-12-29T08:05:38;12.00;;;2.33;;
38034;SDS011;23841;48.524;1.342;2022-12-29T08:08:03;8.90;;;2.42;;
38034;SDS011;23841;48.524;1.342;2022-12-29T08:10:28;8.80;;;1.85;;
38034;SDS011;23841;48.524;1.342;2022-12-29T08:12:54;10.68;;;1.88;;
38034;SDS011;23841;48.524;1.342;2022-12-29T08:15:19;12.52;;;1.90;;
38034;SDS011;23841;48.524;1.342;2022-12-29T08:17:44;9.63;;;2.58;;
38034;SDS011;23841;48.524;1.342;2022-12-29T08:20:09;6.22;;;1.60;;
38034;SDS011;23841;48.524;1.342;2022-12-29T08:22:35;7.00;;;2.03;;
38034;SDS011;23841;48.524;1.342;2022-12-29T08:25:00;12.60;;;2.80;;
38034;SDS011;23841;48.524;1.342;2022-12-29T08:27:25;6.45;;;1.88;;
38034;SDS011;23841;48.524;1.342;2022-12-29T08:29:51;10.82;;;2.15;;
38034;SDS011;23841;48.524;1.342;2022-12-29T08:32:17;8.68;;;1.98;;
38034;SDS011;23841;48.524;1.342;2022-12-29T08:34:42;15.85;;;2.20;;
38034;SDS011;23841;48.524;1.342;2022-12-29T08:37:07;8.63;;;1.85;;
38034;SDS011;23841;48.524;1.342;2022-12-29T08:39:33;7.13;;;1.92;;
38034;SDS011;23841;48.524;1.342;2022-12-29T08:41:58;8.95;;;2.28;;
38034;SDS011;23841;48.524;1.342;2022-12-29T08:44:24;11.43;;;2.35;;
38034;SDS011;23841;48.524;1.342;2022-12-29T08:46:49;9.82;;;1.98;;
38034;SDS011;23841;48.524;1.342;2022-12-29T08:49:14;10.35;;;2.63;;
38034;SDS011;23841;48.524;1.342;2022-12-29T08:51:39;8.50;;;1.95;;
38034;SDS011;23841;48.524;1.342;2022-12-29T08:54:05;12.10;;;2.80;;
38034;SDS011;23841;48.524;1.342;2022-12-29T08:56:30;13.27;;;2.58;;
38034;SDS011;23841;48.524;1.342;2022-12-29T08:58:56;8.88;;;3.05;;
38034;SDS011;23841;48.524;1.342;2022-12-29T09:01:21;10.43;;;2.22;;
38034;SDS011;23841;48.524;1.342;2022-12-29T09:03:47;8.77;;;2.03;;
38034;SDS011;23841;48.524;1.342;2022-12-29T09:06:13;7.40;;;1.90;;
38034;SDS011;23841;48.524;1.342;2022-12-29T09:08:38;11.57;;;1.90;;
38034;SDS011;23841;48.524;1.342;2022-12-29T09:11:11;8.48;;;2.10;;
38034;SDS011;23841;48.524;1.342;2022-12-29T09:13:36;10.68;;;2.72;;
38034;SDS011;23841;48.524;1.342;2022-12-29T09:16:02;9.85;;;2.03;;
38034;SDS011;23841;48.524;1.342;2022-12-29T09:18:27;15.00;;;3.13;;
38034;SDS011;23841;48.524;1.342;2022-12-29T09:20:56;10.00;;;2.10;;
38034;SDS011;23841;48.524;1.342;2022-12-29T09:23:22;9.20;;;1.60;;
38034;SDS011;23841;48.524;1.342;2022-12-29T09:25:47;15.23;;;2.95;;
38034;SDS011;23841;48.524;1.342;2022-12-29T09:28:12;12.02;;;2.10;;
38034;SDS011;23841;48.524;1.342;2022-12-29T09:30:38;8.63;;;1.90;;
38034;SDS011;23841;48.524;1.342;2022-12-29T09:33:03;7.68;;;2.10;;
38034;SDS011;23841;48.524;1.342;2022-12-29T09:35:28;8.13;;;1.90;;
38034;SDS011;23841;48.524;1.342;2022-12-29T09:37:53;11.18;;;2.08;;
38034;SDS011;23841;48.524;1.342;2022-12-29T09:40:26;8.88;;;2.22;;
38034;SDS011;23841;48.524;1.342;2022-12-29T09:45:29;11.48;;;1.95;;
38034;SDS011;23841;48.524;1.342;2022-12-29T09:47:57;6.82;;;2.03;;
38034;SDS011;23841;48.524;1.342;2022-12-29T09:52:52;8.10;;;1.90;;
38034;SDS011;23841;48.524;1.342;2022-12-29T09:55:21;10.25;;;2.15;;
38034;SDS011;23841;48.524;1.342;2022-12-29T09:57:49;11.38;;;2.38;;
38034;SDS011;23841;48.524;1.342;2022-12-29T10:00:16;11.68;;;2.40;;
38034;SDS011;23841;48.524;1.342;2022-12-29T10:02:55;12.18;;;2.30;;
38034;SDS011;23841;48.524;1.342;2022-12-29T10:12:46;8.75;;;2.10;;
38034;SDS011;23841;48.524;1.342;2022-12-29T10:18:05;12.00;;;2.53;;
38034;SDS011;23841;48.524;1.342;2022-12-29T10:20:38;12.48;;;2.30;;
38034;SDS011;23841;48.524;1.342;2022-12-29T10:25:42;9.25;;;2.15;;
38034;SDS011;23841;48.524;1.342;2022-12-29T10:28:21;9.90;;;2.45;;
38034;SDS011;23841;48.524;1.342;2022-12-29T10:30:47;11.65;;;2.25;;
38034;SDS011;23841;48.524;1.342;2022-12-29T10:33:15;11.27;;;2.70;;
38034;SDS011;23841;48.524;1.342;2022-12-29T10:35:41;9.82;;;2.25;;
38034;SDS011;23841;48.524;1.342;2022-12-29T10:40:38;11.30;;;3.03;;
38034;SDS011;23841;48.524;1.342;2022-12-29T10:43:27;12.98;;;2.88;;
38034;SDS011;23841;48.524;1.342;2022-12-29T10:45:52;10.45;;;1.85;;
38034;SDS011;23841;48.524;1.342;2022-12-29T10:48:31;9.15;;;2.22;;
38034;SDS011;23841;48.524;1.342;2022-12-29T10:50:57;12.65;;;2.17;;
38034;SDS011;23841;48.524;1.342;2022-12-29T10:54:06;18.35;;;4.22;;
38034;SDS011;23841;48.524;1.342;2022-12-29T10:56:18;14.65;;;3.08;;
38034;SDS011;23841;48.524;1.342;2022-12-29T10:58:46;12.88;;;2.92;;
38034;SDS011;23841;48.524;1.342;2022-12-29T11:01:13;10.35;;;2.60;;
38034;SDS011;23841;48.524;1.342;2022-12-29T11:03:56;9.73;;;2.45;;
38034;SDS011;23841;48.524;1.342;2022-12-29T11:06:25;14.50;;;2.45;;
38034;SDS011;23841;48.524;1.342;2022-12-29T11:08:56;12.20;;;2.58;;
38034;SDS011;23841;48.524;1.342;2022-12-29T11:11:27;8.57;;;2.25;;
38034;SDS011;23841;48.524;1.342;2022-12-29T11:13:57;11.55;;;2.60;;
38034;SDS011;23841;48.524;1.342;2022-12-29T11:16:32;8.65;;;2.30;;
38034;SDS011;23841;48.524;1.342;2022-12-29T11:18:59;10.70;;;2.35;;
38034;SDS011;23841;48.524;1.342;2022-12-29T11:23:57;13.18;;;2.45;;
38034;SDS011;23841;48.524;1.342;2022-12-29T11:26:23;9.88;;;2.88;;
38034;SDS011;23841;48.524;1.342;2022-12-29T11:31:42;15.45;;;2.58;;
38034;SDS011;23841;48.524;1.342;2022-12-29T11:34:14;8.75;;;2.13;;
38034;SDS011;23841;48.524;1.342;2022-12-29T11:36:41;12.10;;;2.88;;
38034;SDS011;23841;48.524;1.342;2022-12-29T11:39:06;6.80;;;1.95;;
38034;SDS011;23841;48.524;1.342;2022-12-29T11:41:51;8.73;;;1.90;;
38034;SDS011;23841;48.524;1.342;2022-12-29T11:44:16;10.23;;;2.33;;
38034;SDS011;23841;48.524;1.342;2022-12-29T11:46:42;13.65;;;2.38;;
38034;SDS011;23841;48.524;1.342;2022-12-29T11:49:12;11.63;;;2.30;;
38034;SDS011;23841;48.524;1.342;2022-12-29T11:51:43;9.65;;;2.33;;
38034;SDS011;23841;48.524;1.342;2022-12-29T11:54:09;12.63;;;2.08;;
38034;SDS011;23841;48.524;1.342;2022-12-29T11:56:39;8.25;;;2.22;;
38034;SDS011;23841;48.524;1.342;2022-12-29T12:04:43;6.55;;;1.77;;
38034;SDS011;23841;48.524;1.342;2022-12-29T12:07:13;7.93;;;2.40;;
38034;SDS011;23841;48.524;1.342;2022-12-29T12:09:44;8.80;;;2.13;;
38034;SDS011;23841;48.524;1.342;2022-12-29T12:14:56;9.73;;;2.60;;
38034;SDS011;23841;48.524;1.342;2022-12-29T12:17:27;11.40;;;2.38;;
38034;SDS011;23841;48.524;1.342;2022-12-29T12:22:27;11.80;;;2.00;;
38034;SDS011;23841;48.524;1.342;2022-12-29T12:24:59;10.98;;;2.53;;
38034;SDS011;23841;48.524;1.342;2022-12-29T12:27:31;14.85;;;2.13;;
38034;SDS011;23841;48.524;1.342;2022-12-29T12:30:05;12.07;;;2.63;;
38034;SDS011;23841;48.524;1.342;2022-12-29T12:34:59;9.85;;;2.28;;
38034;SDS011;23841;48.524;1.342;2022-12-29T12:37:41;10.07;;;1.75;;
38034;SDS011;23841;48.524;1.342;2022-12-29T12:52:59;9.75;;;2.78;;
38034;SDS011;23841;48.524;1.342;2022-12-29T13:00:41;8.73;;;1.98;;
38034;SDS011;23841;48.524;1.342;2022-12-29T13:03:17;10.10;;;2.38;;
38034;SDS011;23841;48.524;1.342;2022-12-29T13:11:12;7.25;;;2.15;;
38034;SDS011;23841;48.524;1.342;2022-12-29T13:23:49;11.27;;;2.13;;
38034;SDS011;23841;48.524;1.342;2022-12-29T13:26:26;7.95;;;2.17;;
38034;SDS011;23841;48.524;1.342;2022-12-29T13:33:50;9.05;;;2.17;;
38034;SDS011;23841;48.524;1.342;2022-12-29T13:36:38;7.88;;;2.05;;
38034;SDS011;23841;48.524;1.342;2022-12-29T13:39:19;13.80;;;2.75;;
38034;SDS011;23841;48.524;1.342;2022-12-29T13:41:47;8.27;;;2.13;;
38034;SDS011;23841;48.524;1.342;2022-12-29T13:44:33;6.22;;;1.80;;
38034;SDS011;23841;48.524;1.342;2022-12-29T13:47:00;6.60;;;1.53;;
38034;SDS011;23841;48.524;1.342;2022-12-29T13:49:30;5.95;;;1.70;;
38034;SDS011;23841;48.524;1.342;2022-12-29T13:51:58;5.90;;;1.75;;
38034;SDS011;23841;48.524;1.342;2022-12-29T13:57:16;9.80;;;1.70;;
38034;SDS011;23841;48.524;1.342;2022-12-29T13:59:48;6.38;;;1.38;;
38034;SDS011;23841;48.524;1.342;2022-12-29T14:04:56;12.05;;;2.20;;
38034;SDS011;23841;48.524;1.342;2022-12-29T14:07:21;8.13;;;1.70;;
38034;SDS011;23841;48.524;1.342;2022-12-29T14:09:49;8.73;;;2.05;;
38034;SDS011;23841;48.524;1.342;2022-12-29T14:12:20;6.25;;;1.90;;
38034;SDS011;23841;48.524;1.342;2022-12-29T14:14:47;6.65;;;1.67;;
38034;SDS011;23841;48.524;1.342;2022-12-29T14:17:16;7.53;;;1.80;;
38034;SDS011;23841;48.524;1.342;2022-12-29T14:19:44;6.43;;;1.63;;
38034;SDS011;23841;48.524;1.342;2022-12-29T14:22:11;10.27;;;2.20;;
38034;SDS011;23841;48.524;1.342;2022-12-29T14:24:44;7.82;;;1.70;;
38034;SDS011;23841;48.524;1.342;2022-12-29T14:34:48;8.00;;;2.00;;
38034;SDS011;23841;48.524;1.342;2022-12-29T14:37:27;7.50;;;2.20;;
38034;SDS011;23841;48.524;1.342;2022-12-29T14:42:38;7.97;;;2.40;;
38034;SDS011;23841;48.524;1.342;2022-12-29T14:45:06;8.20;;;2.20;;
38034;SDS011;23841;48.524;1.342;2022-12-29T14:47:37;7.95;;;1.90;;
38034;SDS011;23841;48.524;1.342;2022-12-29T14:52:57;10.57;;;1.87;;
38034;SDS011;23841;48.524;1.342;2022-12-29T14:55:36;8.07;;;1.60;;
38034;SDS011;23841;48.524;1.342;2022-12-29T14:58:04;8.15;;;2.30;;
38034;SDS011;23841;48.524;1.342;2022-12-29T15:00:33;7.47;;;2.15;;
38034;SDS011;23841;48.524;1.342;2022-12-29T15:03:06;6.53;;;1.75;;
38034;SDS011;23841;48.524;1.342;2022-12-29T15:05:36;8.93;;;1.90;;
38034;SDS011;23841;48.524;1.342;2022-12-29T15:08:05;8.27;;;2.22;;
38034;SDS011;23841;48.524;1.342;2022-12-29T15:10:34;6.38;;;1.83;;
38034;SDS011;23841;48.524;1.342;2022-12-29T15:13:03;9.63;;;2.47;;
38034;SDS011;23841;48.524;1.342;2022-12-29T15:15:29;8.93;;;1.67;;
38034;SDS011;23841;48.524;1.342;2022-12-29T15:21:00;10.50;;;2.08;;
38034;SDS011;23841;48.524;1.342;2022-12-29T15:23:25;6.38;;;1.38;;
38034;SDS011;23841;48.524;1.342;2022-12-29T15:25:55;6.93;;;1.95;;
38034;SDS011;23841;48.524;1.342;2022-12-29T15:28:21;10.23;;;2.20;;
38034;SDS011;23841;48.524;1.342;2022-12-29T15:30:57;7.97;;;1.65;;
38034;SDS011;23841;48.524;1.342;2022-12-29T15:33:26;10.23;;;1.70;;
38034;SDS011;23841;48.524;1.342;2022-12-29T15:35:53;10.15;;;2.28;;
38034;SDS011;23841;48.524;1.342;2022-12-29T15:40:49;12.40;;;2.25;;
38034;SDS011;23841;48.524;1.342;2022-12-29T15:43:40;8.85;;;1.73;;
38034;SDS011;23841;48.524;1.342;2022-12-29T15:46:02;10.95;;;2.88;;
38034;SDS011;23841;48.524;1.342;2022-12-29T15:48:27;9.38;;;1.42;;
38034;SDS011;23841;48.524;1.342;2022-12-29T15:50:53;6.93;;;1.85;;
38034;SDS011;23841;48.524;1.342;2022-12-29T15:53:28;6.22;;;1.75;;
38034;SDS011;23841;48.524;1.342;2022-12-29T15:55:56;8.18;;;2.00;;
38034;SDS011;23841;48.524;1.342;2022-12-29T15:58:23;12.13;;;2.95;;
38034;SDS011;23841;48.524;1.342;2022-12-29T16:00:50;8.73;;;1.80;;
38034;SDS011;23841;48.524;1.342;2022-12-29T16:03:17;11.05;;;1.90;;
38034;SDS011;23841;48.524;1.342;2022-12-29T16:05:49;6.50;;;1.58;;
38034;SDS011;23841;48.524;1.342;2022-12-29T16:08:33;6.70;;;1.45;;
38034;SDS011;23841;48.524;1.342;2022-12-29T16:11:02;8.20;;;1.75;;
38034;SDS011;23841;48.524;1.342;2022-12-29T16:13:32;9.55;;;1.80;;
38034;SDS011;23841;48.524;1.342;2022-12-29T16:16:03;9.40;;;1.98;;
38034;SDS011;23841;48.524;1.342;2022-12-29T16:18:34;6.72;;;2.00;;
38034;SDS011;23841;48.524;1.342;2022-12-29T16:21:00;8.45;;;1.77;;
38034;SDS011;23841;48.524;1.342;2022-12-29T16:23:26;10.95;;;2.13;;
38034;SDS011;23841;48.524;1.342;2022-12-29T16:25:54;12.05;;;1.98;;
38034;SDS011;23841;48.524;1.342;2022-12-29T16:28:21;9.50;;;1.77;;
38034;SDS011;23841;48.524;1.342;2022-12-29T16:30:47;9.13;;;1.83;;
38034;SDS011;23841;48.524;1.342;2022-12-29T16:36:02;5.95;;;1.92;;
38034;SDS011;23841;48.524;1.342;2022-12-29T16:38:46;7.90;;;2.08;;
38034;SDS011;23841;48.524;1.342;2022-12-29T16:41:12;9.93;;;2.08;;
38034;SDS011;23841;48.524;1.342;2022-12-29T16:44:10;7.25;;;2.10;;
38034;SDS011;23841;48.524;1.342;2022-12-29T16:46:36;6.65;;;1.85;;
38034;SDS011;23841;48.524;1.342;2022-12-29T16:49:02;10.48;;;1.90;;
38034;SDS011;23841;48.524;1.342;2022-12-29T16:51:31;11.98;;;2.55;;
38034;SDS011;23841;48.524;1.342;2022-12-29T16:53:58;8.50;;;2.15;;
38034;SDS011;23841;48.524;1.342;2022-12-29T16:56:25;7.45;;;2.20;;
38034;SDS011;23841;48.524;1.342;2022-12-29T16:59:38;10.65;;;2.05;;
38034;SDS011;23841;48.524;1.342;2022-12-29T17:01:37;10.68;;;2.10;;
38034;SDS011;23841;48.524;1.342;2022-12-29T17:04:07;8.88;;;2.25;;
38034;SDS011;23841;48.524;1.342;2022-12-29T17:06:33;14.50;;;2.75;;
38034;SDS011;23841;48.524;1.342;2022-12-29T17:08:59;11.50;;;2.50;;
38034;SDS011;23841;48.524;1.342;2022-12-29T17:11:28;8.82;;;2.13;;
38034;SDS011;23841;48.524;1.342;2022-12-29T17:14:20;8.68;;;1.90;;
38034;SDS011;23841;48.524;1.342;2022-12-29T17:16:46;8.98;;;2.70;;
38034;SDS011;23841;48.524;1.342;2022-12-29T17:19:28;11.77;;;2.28;;
38034;SDS011;23841;48.524;1.342;2022-12-29T17:21:54;8.63;;;1.98;;
38034;SDS011;23841;48.524;1.342;2022-12-29T17:24:19;8.73;;;1.80;;